sensor_id;sensor_type;location;lat;lon;timestamp;pressure;altitude;pressure_sealevel;temperature;humidity
76122;BME280;64853;53.200;6.080;2023-02-11T00:02:56;103161.78;;;17.53;38.90
76122;BME280;64853;53.200;6.080;2023-02-11T00:07:48;103145.91;;;17.48;39.08
76122;BME280;64853;53.200;6.080;2023-02-11T00:12:39;103128.50;;;17.48;39.04
76122;BME280;64853;53.200;6.080;2023-02-11T00:17:33;103140.22;;;17.43;38.96
76122;BME280;64853;53.200;6.080;2023-02-11T00:22:25;103156.75;;;17.43;38.97
76122;BME280;64853;53.200;6.080;2023-02-11T00:27:16;103154.22;;;17.42;39.03
76122;BME280;64853;53.200;6.080;2023-02-11T00:32:08;103156.38;;;17.40;38.98
76122;BME280;64853;53.200;6.080;2023-02-11T00:37:02;103156.00;;;17.36;39.01
76122;BME280;64853;53.200;6.080;2023-02-11T00:41:54;103148.78;;;17.35;38.99
76122;BME280;64853;53.200;6.080;2023-02-11T00:46:45;103150.09;;;17.33;38.84
76122;BME280;64853;53.200;6.080;2023-02-11T00:51:37;103118.47;;;17.10;38.84
76122;BME280;64853;53.200;6.080;2023-02-11T00:56:30;103134.47;;;17.26;38.76
76122;BME280;64853;53.200;6.080;2023-02-11T01:01:22;103154.44;;;17.22;39.07
76122;BME280;64853;53.200;6.080;2023-02-11T01:06:13;103175.22;;;17.18;38.94
76122;BME280;64853;53.200;6.080;2023-02-11T01:11:10;103166.75;;;17.19;39.09
76122;BME280;64853;53.200;6.080;2023-02-11T01:16:05;103157.25;;;17.15;39.16
76122;BME280;64853;53.200;6.080;2023-02-11T01:20:57;103153.81;;;17.13;39.27
76122;BME280;64853;53.200;6.080;2023-02-11T01:25:49;103151.06;;;17.13;39.20
76122;BME280;64853;53.200;6.080;2023-02-11T01:30:40;103149.84;;;17.09;39.07
76122;BME280;64853;53.200;6.080;2023-02-11T01:35:33;103149.44;;;17.05;39.22
76122;BME280;64853;53.200;6.080;2023-02-11T01:40:25;103141.41;;;17.04;39.15
76122;BME280;64853;53.200;6.080;2023-02-11T01:45:41;103160.50;;;16.99;39.31
76122;BME280;64853;53.200;6.080;2023-02-11T01:50:39;103158.22;;;16.95;39.17
76122;BME280;64853;53.200;6.080;2023-02-11T01:55:31;103151.03;;;16.94;39.34
76122;BME280;64853;53.200;6.080;2023-02-11T02:00:40;103131.34;;;16.91;39.35
76122;BME280;64853;53.200;6.080;2023-02-11T02:05:39;103139.38;;;16.92;39.43
76122;BME280;64853;53.200;6.080;2023-02-11T02:10:33;103134.31;;;16.89;39.08
76122;BME280;64853;53.200;6.080;2023-02-11T02:15:28;103122.47;;;16.89;39.38
76122;BME280;64853;53.200;6.080;2023-02-11T02:20:40;103125.06;;;16.84;39.46
76122;BME280;64853;53.200;6.080;2023-02-11T02:25:51;103125.06;;;16.84;39.17
76122;BME280;64853;53.200;6.080;2023-02-11T02:31:09;103120.84;;;16.81;39.23
76122;BME280;64853;53.200;6.080;2023-02-11T02:36:13;103122.53;;;16.82;39.09
76122;BME280;64853;53.200;6.080;2023-02-11T02:41:09;103122.59;;;16.75;39.36
76122;BME280;64853;53.200;6.080;2023-02-11T02:46:13;103117.47;;;16.79;39.58
76122;BME280;64853;53.200;6.080;2023-02-11T02:51:14;103105.84;;;16.77;39.51
76122;BME280;64853;53.200;6.080;2023-02-11T02:56:11;103105.19;;;16.75;39.36
76122;BME280;64853;53.200;6.080;2023-02-11T03:01:13;103098.03;;;16.74;39.63
76122;BME280;64853;53.200;6.080;2023-02-11T03:06:15;103092.97;;;16.71;39.67
76122;BME280;64853;53.200;6.080;2023-02-11T03:11:10;103088.75;;;16.68;39.35
76122;BME280;64853;53.200;6.080;2023-02-11T03:16:08;103090.88;;;16.66;39.56
76122;BME280;64853;53.200;6.080;2023-02-11T03:21:01;103093.84;;;16.65;39.51
76122;BME280;64853;53.200;6.080;2023-02-11T03:25:57;103093.00;;;16.64;39.44
76122;BME280;64853;53.200;6.080;2023-02-11T03:30:55;103088.75;;;16.68;39.48
76122;BME280;64853;53.200;6.080;2023-02-11T03:35:56;103082.34;;;16.74;39.32
76122;BME280;64853;53.200;6.080;2023-02-11T03:40:49;103070.94;;;16.71;39.27
76122;BME280;64853;53.200;6.080;2023-02-11T03:45:43;103065.25;;;16.66;39.55
76122;BME280;64853;53.200;6.080;2023-02-11T03:50:36;103073.72;;;16.64;39.54
76122;BME280;64853;53.200;6.080;2023-02-11T03:55:29;103077.13;;;16.66;39.71
76122;BME280;64853;53.200;6.080;2023-02-11T04:00:29;103084.25;;;16.74;39.25
76122;BME280;64853;53.200;6.080;2023-02-11T04:05:22;103079.81;;;16.73;39.30
76122;BME280;64853;53.200;6.080;2023-02-11T04:10:14;103091.28;;;16.70;39.44
76122;BME280;64853;53.200;6.080;2023-02-11T04:15:06;103100.59;;;16.69;39.66
76122;BME280;64853;53.200;6.080;2023-02-11T04:19:57;103092.06;;;16.77;39.36
76122;BME280;64853;53.200;6.080;2023-02-11T04:24:50;103090.38;;;16.76;39.32
76122;BME280;64853;53.200;6.080;2023-02-11T04:29:42;103094.03;;;16.70;39.47
76122;BME280;64853;53.200;6.080;2023-02-11T04:34:33;103104.44;;;16.68;39.57
76122;BME280;64853;53.200;6.080;2023-02-11T04:39:24;103093.41;;;16.68;39.67
76122;BME280;64853;53.200;6.080;2023-02-11T04:44:17;103085.31;;;16.73;39.41
76122;BME280;64853;53.200;6.080;2023-02-11T04:49:10;103087.84;;;16.74;39.53
76122;BME280;64853;53.200;6.080;2023-02-11T04:54:03;103089.56;;;16.69;39.63
76122;BME280;64853;53.200;6.080;2023-02-11T04:58:54;103084.06;;;16.69;39.79
76122;BME280;64853;53.200;6.080;2023-02-11T05:03:47;103091.88;;;16.72;39.58
76122;BME280;64853;53.200;6.080;2023-02-11T05:08:40;103092.75;;;16.98;39.42
76122;BME280;64853;53.200;6.080;2023-02-11T05:13:31;103086.63;;;17.21;38.89
76122;BME280;64853;53.200;6.080;2023-02-11T05:18:23;103088.09;;;17.42;38.76
76122;BME280;64853;53.200;6.080;2023-02-11T05:23:15;103088.78;;;17.56;38.64
76122;BME280;64853;53.200;6.080;2023-02-11T05:28:07;103100.41;;;17.76;38.48
76122;BME280;64853;53.200;6.080;2023-02-11T05:32:58;103099.41;;;17.89;38.45
76122;BME280;64853;53.200;6.080;2023-02-11T05:37:50;103093.38;;;17.99;38.42
76122;BME280;64853;53.200;6.080;2023-02-11T05:42:43;103076.88;;;18.11;38.23
76122;BME280;64853;53.200;6.080;2023-02-11T05:47:34;103084.81;;;18.19;38.33
76122;BME280;64853;53.200;6.080;2023-02-11T05:52:26;103084.03;;;18.30;38.13
76122;BME280;64853;53.200;6.080;2023-02-11T05:57:17;103088.13;;;18.39;37.95
76122;BME280;64853;53.200;6.080;2023-02-11T06:02:10;103085.41;;;18.51;37.89
76122;BME280;64853;53.200;6.080;2023-02-11T06:07:02;103089.97;;;18.57;37.86
76122;BME280;64853;53.200;6.080;2023-02-11T06:11:53;103088.91;;;18.70;38.02
76122;BME280;64853;53.200;6.080;2023-02-11T06:16:45;103085.44;;;18.75;38.02
76122;BME280;64853;53.200;6.080;2023-02-11T06:21:38;103087.91;;;18.83;37.86
76122;BME280;64853;53.200;6.080;2023-02-11T06:26:29;103093.31;;;18.90;37.90
76122;BME280;64853;53.200;6.080;2023-02-11T06:31:21;103095.97;;;18.97;37.71
76122;BME280;64853;53.200;6.080;2023-02-11T06:36:15;103100.28;;;19.04;37.49
76122;BME280;64853;53.200;6.080;2023-02-11T06:41:10;103107.63;;;19.10;37.59
76122;BME280;64853;53.200;6.080;2023-02-11T06:46:01;103102.69;;;19.13;37.47
76122;BME280;64853;53.200;6.080;2023-02-11T06:50:53;103108.47;;;19.23;37.29
76122;BME280;64853;53.200;6.080;2023-02-11T06:55:44;103112.66;;;19.25;37.20
76122;BME280;64853;53.200;6.080;2023-02-11T07:00:37;103108.59;;;19.28;37.57
76122;BME280;64853;53.200;6.080;2023-02-11T07:05:29;103110.88;;;19.31;37.28
76122;BME280;64853;53.200;6.080;2023-02-11T07:10:20;103113.38;;;19.33;37.44
76122;BME280;64853;53.200;6.080;2023-02-11T07:15:11;103105.69;;;19.35;37.42
76122;BME280;64853;53.200;6.080;2023-02-11T07:20:05;103104.84;;;19.34;37.15
76122;BME280;64853;53.200;6.080;2023-02-11T07:24:58;103110.97;;;19.36;37.24
76122;BME280;64853;53.200;6.080;2023-02-11T07:29:49;103121.44;;;19.34;37.33
76122;BME280;64853;53.200;6.080;2023-02-11T07:34:41;103122.50;;;19.33;37.49
76122;BME280;64853;53.200;6.080;2023-02-11T07:39:34;103122.75;;;19.32;37.19
76122;BME280;64853;53.200;6.080;2023-02-11T07:44:25;103123.00;;;19.30;37.48
76122;BME280;64853;53.200;6.080;2023-02-11T07:49:17;103133.69;;;19.26;37.42
76122;BME280;64853;53.200;6.080;2023-02-11T07:54:09;103132.25;;;19.24;37.58
76122;BME280;64853;53.200;6.080;2023-02-11T07:59:03;103128.06;;;19.21;37.75
76122;BME280;64853;53.200;6.080;2023-02-11T08:03:55;103127.69;;;19.18;37.65
76122;BME280;64853;53.200;6.080;2023-02-11T08:08:48;103137.53;;;19.14;37.46
76122;BME280;64853;53.200;6.080;2023-02-11T08:13:39;103132.97;;;19.07;37.67
76122;BME280;64853;53.200;6.080;2023-02-11T08:18:33;103133.91;;;19.01;37.83
76122;BME280;64853;53.200;6.080;2023-02-11T08:23:25;103149.91;;;18.99;38.20
76122;BME280;64853;53.200;6.080;2023-02-11T08:28:16;103170.06;;;19.00;38.45
76122;BME280;64853;53.200;6.080;2023-02-11T08:33:08;103173.06;;;18.98;38.79
76122;BME280;64853;53.200;6.080;2023-02-11T08:38:00;103186.28;;;18.96;41.58
76122;BME280;64853;53.200;6.080;2023-02-11T08:42:52;103198.53;;;19.00;40.30
76122;BME280;64853;53.200;6.080;2023-02-11T08:47:43;103197.47;;;19.01;39.61
76122;BME280;64853;53.200;6.080;2023-02-11T08:52:35;103188.72;;;19.04;40.49
76122;BME280;64853;53.200;6.080;2023-02-11T08:57:28;103197.28;;;19.26;39.74
76122;BME280;64853;53.200;6.080;2023-02-11T09:02:20;103196.69;;;19.24;39.11
76122;BME280;64853;53.200;6.080;2023-02-11T09:07:11;103206.50;;;19.20;39.16
76122;BME280;64853;53.200;6.080;2023-02-11T09:12:03;103231.16;;;19.22;39.71
76122;BME280;64853;53.200;6.080;2023-02-11T09:16:56;103225.03;;;19.20;40.03
76122;BME280;64853;53.200;6.080;2023-02-11T09:21:48;103230.16;;;19.16;39.68
76122;BME280;64853;53.200;6.080;2023-02-11T09:26:40;103225.81;;;19.08;39.35
76122;BME280;64853;53.200;6.080;2023-02-11T09:31:33;103221.03;;;19.04;39.47
76122;BME280;64853;53.200;6.080;2023-02-11T09:36:27;103240.38;;;19.16;39.64
76122;BME280;64853;53.200;6.080;2023-02-11T09:41:30;103250.97;;;19.19;39.42
76122;BME280;64853;53.200;6.080;2023-02-11T09:46:24;103262.97;;;19.13;39.68
76122;BME280;64853;53.200;6.080;2023-02-11T09:51:19;103268.59;;;19.06;39.53
76122;BME280;64853;53.200;6.080;2023-02-11T09:56:14;103269.06;;;19.03;39.20
76122;BME280;64853;53.200;6.080;2023-02-11T10:01:08;103271.13;;;19.07;39.19
76122;BME280;64853;53.200;6.080;2023-02-11T10:06:17;103295.41;;;19.05;38.91
76122;BME280;64853;53.200;6.080;2023-02-11T10:11:18;103295.00;;;19.02;38.95
76122;BME280;64853;53.200;6.080;2023-02-11T10:16:22;103303.91;;;19.04;40.21
76122;BME280;64853;53.200;6.080;2023-02-11T10:21:24;103308.47;;;19.10;44.05
76122;BME280;64853;53.200;6.080;2023-02-11T10:26:21;103308.41;;;19.17;42.55
76122;BME280;64853;53.200;6.080;2023-02-11T10:31:15;103315.00;;;19.16;41.75
76122;BME280;64853;53.200;6.080;2023-02-11T10:36:10;103322.06;;;19.11;41.47
76122;BME280;64853;53.200;6.080;2023-02-11T10:41:02;103323.03;;;19.05;40.62
76122;BME280;64853;53.200;6.080;2023-02-11T10:45:56;103322.06;;;19.11;40.83
76122;BME280;64853;53.200;6.080;2023-02-11T10:50:48;103321.59;;;19.15;41.23
76122;BME280;64853;53.200;6.080;2023-02-11T10:55:48;103322.69;;;19.14;40.92
76122;BME280;64853;53.200;6.080;2023-02-11T11:00:41;103324.22;;;19.09;40.91
76122;BME280;64853;53.200;6.080;2023-02-11T11:05:36;103338.38;;;19.01;40.60
76122;BME280;64853;53.200;6.080;2023-02-11T11:10:38;103353.91;;;19.02;40.77
76122;BME280;64853;53.200;6.080;2023-02-11T11:15:32;103361.63;;;19.12;40.59
76122;BME280;64853;53.200;6.080;2023-02-11T11:20:26;103356.22;;;19.17;40.43
76122;BME280;64853;53.200;6.080;2023-02-11T11:25:26;103352.63;;;19.17;40.03
76122;BME280;64853;53.200;6.080;2023-02-11T11:30:19;103358.63;;;19.14;40.22
76122;BME280;64853;53.200;6.080;2023-02-11T11:35:20;103368.22;;;19.11;39.92
76122;BME280;64853;53.200;6.080;2023-02-11T11:40:21;103364.78;;;18.97;40.16
76122;BME280;64853;53.200;6.080;2023-02-11T11:45:23;103376.13;;;19.07;40.21
76122;BME280;64853;53.200;6.080;2023-02-11T11:50:26;103364.75;;;19.16;40.41
76122;BME280;64853;53.200;6.080;2023-02-11T11:55:24;103374.75;;;19.17;40.01
76122;BME280;64853;53.200;6.080;2023-02-11T12:00:21;103371.09;;;19.16;39.78
76122;BME280;64853;53.200;6.080;2023-02-11T12:05:21;103370.75;;;19.13;39.86
76122;BME280;64853;53.200;6.080;2023-02-11T12:10:28;103374.06;;;19.03;40.25
76122;BME280;64853;53.200;6.080;2023-02-11T12:15:30;103385.13;;;19.03;40.21
76122;BME280;64853;53.200;6.080;2023-02-11T12:20:30;103391.78;;;19.14;40.86
76122;BME280;64853;53.200;6.080;2023-02-11T12:25:27;103371.56;;;19.13;40.60
76122;BME280;64853;53.200;6.080;2023-02-11T12:30:37;103374.91;;;19.03;40.91
76122;BME280;64853;53.200;6.080;2023-02-11T12:35:40;103372.28;;;19.08;41.21
76122;BME280;64853;53.200;6.080;2023-02-11T12:40:39;103371.88;;;19.23;41.51
76122;BME280;64853;53.200;6.080;2023-02-11T12:45:45;103370.94;;;19.29;41.03
76122;BME280;64853;53.200;6.080;2023-02-11T12:50:45;103372.84;;;19.29;40.67
76122;BME280;64853;53.200;6.080;2023-02-11T12:55:42;103371.31;;;19.33;41.66
76122;BME280;64853;53.200;6.080;2023-02-11T13:00:41;103369.38;;;19.64;42.17
76122;BME280;64853;53.200;6.080;2023-02-11T13:05:38;103360.97;;;19.71;41.66
76122;BME280;64853;53.200;6.080;2023-02-11T13:10:33;103360.28;;;19.75;42.44
76122;BME280;64853;53.200;6.080;2023-02-11T13:15:25;103355.81;;;19.74;40.64
76122;BME280;64853;53.200;6.080;2023-02-11T13:20:27;103354.59;;;19.70;40.85
76122;BME280;64853;53.200;6.080;2023-02-11T13:25:24;103363.34;;;19.67;40.54
76122;BME280;64853;53.200;6.080;2023-02-11T13:30:23;103369.00;;;19.60;41.36
76122;BME280;64853;53.200;6.080;2023-02-11T13:35:28;103370.78;;;19.55;41.34
76122;BME280;64853;53.200;6.080;2023-02-11T13:40:22;103357.00;;;19.36;41.29
76122;BME280;64853;53.200;6.080;2023-02-11T13:45:27;103365.94;;;19.50;41.44
76122;BME280;64853;53.200;6.080;2023-02-11T13:50:21;103365.09;;;19.50;40.87
76122;BME280;64853;53.200;6.080;2023-02-11T13:55:21;103341.94;;;19.20;41.43
76122;BME280;64853;53.200;6.080;2023-02-11T14:00:43;103384.19;;;19.39;41.53
76122;BME280;64853;53.200;6.080;2023-02-11T14:05:35;103397.88;;;19.34;40.22
76122;BME280;64853;53.200;6.080;2023-02-11T14:10:50;103394.22;;;19.22;39.83
76122;BME280;64853;53.200;6.080;2023-02-11T14:15:45;103396.53;;;19.06;40.22
76122;BME280;64853;53.200;6.080;2023-02-11T14:20:40;103385.03;;;18.91;40.69
76122;BME280;64853;53.200;6.080;2023-02-11T14:25:34;103390.66;;;18.84;40.90
76122;BME280;64853;53.200;6.080;2023-02-11T14:30:41;103386.88;;;18.97;41.25
76122;BME280;64853;53.200;6.080;2023-02-11T14:35:38;103383.16;;;19.22;42.01
76122;BME280;64853;53.200;6.080;2023-02-11T14:40:37;103379.97;;;19.37;41.24
76122;BME280;64853;53.200;6.080;2023-02-11T14:45:35;103381.44;;;19.51;42.63
76122;BME280;64853;53.200;6.080;2023-02-11T14:50:32;103389.69;;;19.58;41.72
76122;BME280;64853;53.200;6.080;2023-02-11T14:55:29;103396.72;;;19.54;40.40
76122;BME280;64853;53.200;6.080;2023-02-11T15:00:21;103399.59;;;19.47;41.19
76122;BME280;64853;53.200;6.080;2023-02-11T15:05:20;103410.56;;;19.54;41.17
76122;BME280;64853;53.200;6.080;2023-02-11T15:10:17;103409.50;;;19.55;41.16
76122;BME280;64853;53.200;6.080;2023-02-11T15:15:11;103421.50;;;19.48;40.87
76122;BME280;64853;53.200;6.080;2023-02-11T15:20:04;103433.59;;;19.36;40.93
76122;BME280;64853;53.200;6.080;2023-02-11T15:25:00;103412.63;;;19.28;41.33
76122;BME280;64853;53.200;6.080;2023-02-11T15:29:53;103432.16;;;19.45;40.73
76122;BME280;64853;53.200;6.080;2023-02-11T15:34:45;103437.31;;;19.41;40.84
76122;BME280;64853;53.200;6.080;2023-02-11T15:39:37;103446.53;;;19.35;40.87
76122;BME280;64853;53.200;6.080;2023-02-11T15:44:32;103451.19;;;19.23;40.60
76122;BME280;64853;53.200;6.080;2023-02-11T15:49:24;103442.41;;;19.26;41.39
76122;BME280;64853;53.200;6.080;2023-02-11T15:54:18;103443.66;;;19.30;40.73
76122;BME280;64853;53.200;6.080;2023-02-11T15:59:14;103450.69;;;19.26;41.40
76122;BME280;64853;53.200;6.080;2023-02-11T16:04:15;103444.28;;;19.14;41.29
76122;BME280;64853;53.200;6.080;2023-02-11T16:09:23;103446.81;;;19.15;41.90
76122;BME280;64853;53.200;6.080;2023-02-11T16:14:22;103442.28;;;19.21;41.26
76122;BME280;64853;53.200;6.080;2023-02-11T16:19:17;103444.75;;;19.10;41.19
76122;BME280;64853;53.200;6.080;2023-02-11T16:24:17;103458.84;;;19.21;41.52
76122;BME280;64853;53.200;6.080;2023-02-11T16:29:12;103462.53;;;19.15;41.10
76122;BME280;64853;53.200;6.080;2023-02-11T16:34:10;103453.50;;;19.07;41.28
76122;BME280;64853;53.200;6.080;2023-02-11T16:39:04;103471.59;;;19.22;41.23
76122;BME280;64853;53.200;6.080;2023-02-11T16:43:56;103469.16;;;19.14;41.30
76122;BME280;64853;53.200;6.080;2023-02-11T16:48:48;103474.06;;;19.11;41.90
76122;BME280;64853;53.200;6.080;2023-02-11T16:53:39;103475.06;;;19.17;41.09
76122;BME280;64853;53.200;6.080;2023-02-11T16:58:32;103476.81;;;19.11;40.93
76122;BME280;64853;53.200;6.080;2023-02-11T17:03:25;103495.00;;;19.19;41.86
76122;BME280;64853;53.200;6.080;2023-02-11T17:08:18;103502.72;;;19.17;41.02
76122;BME280;64853;53.200;6.080;2023-02-11T17:13:09;103505.16;;;19.07;41.07
76122;BME280;64853;53.200;6.080;2023-02-11T17:18:02;103515.84;;;19.22;41.38
76122;BME280;64853;53.200;6.080;2023-02-11T17:22:54;103523.81;;;19.30;44.03
76122;BME280;64853;53.200;6.080;2023-02-11T17:27:45;103522.28;;;19.34;44.50
76122;BME280;64853;53.200;6.080;2023-02-11T17:32:37;103525.88;;;19.35;42.62
76122;BME280;64853;53.200;6.080;2023-02-11T17:37:29;103536.56;;;19.31;41.89
76122;BME280;64853;53.200;6.080;2023-02-11T17:42:21;103540.25;;;19.25;42.26
76122;BME280;64853;53.200;6.080;2023-02-11T17:47:12;103537.63;;;19.11;42.35
76122;BME280;64853;53.200;6.080;2023-02-11T17:52:04;103541.31;;;19.24;42.56
76122;BME280;64853;53.200;6.080;2023-02-11T17:56:57;103544.69;;;19.26;41.88
76122;BME280;64853;53.200;6.080;2023-02-11T18:01:48;103553.94;;;19.20;41.69
76122;BME280;64853;53.200;6.080;2023-02-11T18:06:40;103559.72;;;19.11;41.69
76122;BME280;64853;53.200;6.080;2023-02-11T18:11:33;103560.28;;;19.20;42.08
76122;BME280;64853;53.200;6.080;2023-02-11T18:16:26;103582.16;;;19.22;41.51
76122;BME280;64853;53.200;6.080;2023-02-11T18:21:20;103554.06;;;18.88;41.21
76122;BME280;64853;53.200;6.080;2023-02-11T18:26:13;103591.38;;;19.16;41.76
76122;BME280;64853;53.200;6.080;2023-02-11T18:31:06;103598.41;;;19.11;40.95
76122;BME280;64853;53.200;6.080;2023-02-11T18:36:03;103612.25;;;19.11;41.62
76122;BME280;64853;53.200;6.080;2023-02-11T18:40:56;103610.03;;;19.20;40.97
76122;BME280;64853;53.200;6.080;2023-02-11T18:45:49;103615.22;;;19.10;40.85
76122;BME280;64853;53.200;6.080;2023-02-11T18:50:41;103618.41;;;19.14;40.99
76122;BME280;64853;53.200;6.080;2023-02-11T18:55:36;103611.78;;;19.15;40.93
76122;BME280;64853;53.200;6.080;2023-02-11T19:00:29;103607.81;;;19.10;40.85
76122;BME280;64853;53.200;6.080;2023-02-11T19:05:21;103611.78;;;19.15;40.75
76122;BME280;64853;53.200;6.080;2023-02-11T19:10:12;103599.06;;;19.14;40.50
76122;BME280;64853;53.200;6.080;2023-02-11T19:15:06;103617.75;;;19.11;40.80
76122;BME280;64853;53.200;6.080;2023-02-11T19:19:58;103601.38;;;19.17;40.72
76122;BME280;64853;53.200;6.080;2023-02-11T19:24:49;103597.59;;;19.11;40.57
76122;BME280;64853;53.200;6.080;2023-02-11T19:29:40;103602.66;;;19.14;40.83
76122;BME280;64853;53.200;6.080;2023-02-11T19:34:33;103608.78;;;19.16;40.22
76122;BME280;64853;53.200;6.080;2023-02-11T19:39:30;103629.91;;;19.10;40.35
76122;BME280;64853;53.200;6.080;2023-02-11T19:44:21;103626.91;;;19.12;40.44
76122;BME280;64853;53.200;6.080;2023-02-11T19:49:14;103636.28;;;19.11;40.11
76122;BME280;64853;53.200;6.080;2023-02-11T19:54:08;103632.53;;;19.05;40.34
76122;BME280;64853;53.200;6.080;2023-02-11T19:59:02;103636.28;;;19.11;40.47
76122;BME280;64853;53.200;6.080;2023-02-11T20:03:54;103643.72;;;19.10;40.24
76122;BME280;64853;53.200;6.080;2023-02-11T20:08:46;103638.66;;;19.07;40.38
76122;BME280;64853;53.200;6.080;2023-02-11T20:13:40;103640.09;;;19.10;40.54
76122;BME280;64853;53.200;6.080;2023-02-11T20:18:32;103638.88;;;19.06;40.37
76122;BME280;64853;53.200;6.080;2023-02-11T20:23:23;103633.75;;;19.09;40.17
76122;BME280;64853;53.200;6.080;2023-02-11T20:28:14;103632.69;;;19.10;40.00
76122;BME280;64853;53.200;6.080;2023-02-11T20:33:07;103650.94;;;19.11;40.09
76122;BME280;64853;53.200;6.080;2023-02-11T20:37:59;103657.13;;;19.07;40.21
76122;BME280;64853;53.200;6.080;2023-02-11T20:42:52;103658.28;;;18.99;40.54
76122;BME280;64853;53.200;6.080;2023-02-11T20:47:45;103662.78;;;18.93;40.21
76122;BME280;64853;53.200;6.080;2023-02-11T20:52:38;103666.66;;;18.86;40.30
76122;BME280;64853;53.200;6.080;2023-02-11T20:57:30;103676.91;;;18.79;40.94
76122;BME280;64853;53.200;6.080;2023-02-11T21:02:24;103676.72;;;18.80;42.49
76122;BME280;64853;53.200;6.080;2023-02-11T21:07:15;103676.66;;;18.87;41.77
76122;BME280;64853;53.200;6.080;2023-02-11T21:12:08;103683.53;;;19.03;41.67
76122;BME280;64853;53.200;6.080;2023-02-11T21:16:59;103694.88;;;19.20;41.28
76122;BME280;64853;53.200;6.080;2023-02-11T21:21:51;103712.84;;;19.29;41.02
76122;BME280;64853;53.200;6.080;2023-02-11T21:26:44;103724.50;;;19.38;40.69
76122;BME280;64853;53.200;6.080;2023-02-11T21:31:37;103720.59;;;19.45;40.74
76122;BME280;64853;53.200;6.080;2023-02-11T21:36:28;103723.50;;;19.51;40.33
76122;BME280;64853;53.200;6.080;2023-02-11T21:41:20;103728.13;;;19.57;40.25
76122;BME280;64853;53.200;6.080;2023-02-11T21:46:14;103733.25;;;19.60;40.09
76122;BME280;64853;53.200;6.080;2023-02-11T21:51:08;103736.00;;;19.60;40.34
76122;BME280;64853;53.200;6.080;2023-02-11T21:56:03;103734.94;;;19.61;40.21
76122;BME280;64853;53.200;6.080;2023-02-11T22:00:55;103741.91;;;19.63;40.28
76122;BME280;64853;53.200;6.080;2023-02-11T22:05:46;103750.84;;;19.65;40.28
76122;BME280;64853;53.200;6.080;2023-02-11T22:10:39;103746.16;;;19.66;39.78
76122;BME280;64853;53.200;6.080;2023-02-11T22:15:30;103764.22;;;19.69;40.15
76122;BME280;64853;53.200;6.080;2023-02-11T22:20:22;103768.44;;;19.71;39.72
76122;BME280;64853;53.200;6.080;2023-02-11T22:25:13;103765.06;;;19.69;39.76
76122;BME280;64853;53.200;6.080;2023-02-11T22:30:07;103764.63;;;19.72;40.41
76122;BME280;64853;53.200;6.080;2023-02-11T22:34:59;103761.22;;;19.70;40.42
76122;BME280;64853;53.200;6.080;2023-02-11T22:39:51;103761.50;;;19.62;40.15
76122;BME280;64853;53.200;6.080;2023-02-11T22:44:42;103764.53;;;19.54;40.32
76122;BME280;64853;53.200;6.080;2023-02-11T22:49:35;103772.25;;;19.45;40.12
76122;BME280;64853;53.200;6.080;2023-02-11T22:54:26;103778.09;;;19.37;40.45
76122;BME280;64853;53.200;6.080;2023-02-11T22:59:18;103785.38;;;19.31;41.11
76122;BME280;64853;53.200;6.080;2023-02-11T23:04:12;103784.56;;;19.24;40.23
76122;BME280;64853;53.200;6.080;2023-02-11T23:09:06;103778.25;;;19.17;40.70
76122;BME280;64853;53.200;6.080;2023-02-11T23:13:59;103759.28;;;18.95;40.64
76122;BME280;64853;53.200;6.080;2023-02-11T23:18:51;103773.47;;;18.99;40.27
76122;BME280;64853;53.200;6.080;2023-02-11T23:23:44;103788.16;;;18.99;40.18
76122;BME280;64853;53.200;6.080;2023-02-11T23:28:37;103797.94;;;18.95;40.19
76122;BME280;64853;53.200;6.080;2023-02-11T23:33:29;103787.56;;;18.90;40.59
76122;BME280;64853;53.200;6.080;2023-02-11T23:38:20;103724.28;;;18.44;40.38
76122;BME280;64853;53.200;6.080;2023-02-11T23:43:11;103796.34;;;18.81;40.33
76122;BME280;64853;53.200;6.080;2023-02-11T23:48:04;103793.16;;;18.77;40.21
76122;BME280;64853;53.200;6.080;2023-02-11T23:52:56;103806.53;;;18.73;40.39
76122;BME280;64853;53.200;6.080;2023-02-11T23:57:47;103799.78;;;18.69;40.18
